KDET/DET METAR and TAF weather

Enter ICAO airport designator
Station Type Date Time Source
KDET METAR 2019/10/18 06:53 UTC NOAA

KDET 180653Z 30003KT 10SM CLR 06/02 A3000 RMK AO2 SLP163 T00560017


Station Type Date Time Source
KDET Decoded METAR 2019/10/18 06:53 UTC NOAA

DETROIT CITY AIRPORT, MI, United States (KDET) 42-25N 083-01W 190M
Oct 18, 2019 - 02:53 AM EDT / 2019.10.18 0653 UTC
Wind: from the WNW (300 degrees) at 3 MPH (3 KT):0
Visibility: 10 mile(s):0
Sky conditions: clear
Temperature: 42.1 F (5.6 C)
Dew Point: 35.1 F (1.7 C)
Relative Humidity: 75%
Pressure (altimeter): 30 in. Hg (1015 hPa)
ob: KDET 180653Z 30003KT 10SM CLR 06/02 A3000 RMK AO2 SLP163 T00560017
cycle: 7

Station Type Date Time Source
KDET TAF 2019/10/18 06:22 UTC NOAA

TAF KDET 180520Z 1806/1906 33005KT P6SM SCT045
FM181700 16005KT P6SM SCT250

Example: see airport list